Terminal Aerodrome Forecast
Issued by NWS

Home | Current Version | Previous Version | Graphics & Text | Print | Product List | Glossary On
Versions: 1 2 3 4 5 6 7 8 9 10 11 12 13 14 15 16 17 18
000
FTUS43 KGRB 290537
TAFATW
TAF
KATW 290537Z 2906/3006 04005KT P6SM SKC
     FM290900 03005KT P6SM SCT006 BKN200
      TEMPO 2909/2913 3SM BR BKN006
     FM291700 06010KT P6SM SCT030 BKN200
     FM300200 05007KT P6SM SCT015 OVC030
     FM300400 10006KT 5SM -RASN SCT012 OVC025=

USA.gov is the U.S. government's official web portal to all federal, state and local government web resources and services.